createdAt,value
2023-05-01T00:20:45.356Z,8.80
2023-05-01T00:41:59.092Z,10.80
2023-05-01T00:59:11.512Z,8.50
2023-05-01T01:28:41.589Z,8.30
2023-05-01T01:38:05.021Z,8.00
2023-05-01T02:32:06.348Z,7.90
2023-05-01T02:33:09.428Z,7.90
2023-05-01T02:34:13.321Z,8.30
2023-05-01T02:35:17.139Z,8.50
2023-05-01T02:36:20.824Z,7.90
2023-05-01T02:37:24.228Z,7.90
2023-05-01T02:38:28.514Z,7.10
2023-05-01T02:39:31.931Z,11.20
2023-05-01T02:40:41.088Z,7.90
2023-05-01T02:41:46.060Z,7.90
2023-05-01T02:42:52.933Z,7.90
2023-05-01T02:44:04.087Z,7.80
2023-05-01T02:45:11.872Z,7.90
2023-05-01T02:46:18.047Z,7.90
2023-05-01T03:16:11.323Z,6.50
2023-05-01T03:21:32.617Z,8.00
2023-05-01T03:26:50.184Z,7.90
2023-05-01T03:47:10.504Z,10.70
2023-05-01T03:53:39.433Z,10.60
2023-05-01T03:59:07.736Z,11.50
2023-05-01T04:00:12.061Z,11.80
2023-05-01T04:01:23.546Z,11.90
2023-05-01T04:02:26.892Z,12.00
2023-05-01T04:03:30.722Z,16.20
2023-05-01T04:04:35.417Z,12.30
2023-05-01T04:05:39.600Z,12.50
2023-05-01T04:06:42.583Z,12.50
2023-05-01T04:07:46.543Z,12.60
2023-05-01T04:08:49.265Z,12.60
2023-05-01T04:09:53.206Z,11.10
2023-05-01T04:10:56.086Z,12.90
2023-05-01T04:12:00.400Z,12.90
2023-05-01T04:13:02.847Z,13.00
2023-05-01T04:14:06.368Z,13.10
2023-05-01T04:15:14.180Z,13.10
2023-05-01T04:16:19.582Z,13.20
2023-05-01T04:17:23.235Z,13.20
2023-05-01T04:18:26.957Z,13.20
2023-05-01T04:19:36.303Z,13.20
2023-05-01T04:20:40.426Z,13.30
2023-05-01T04:21:43.737Z,13.30
2023-05-01T04:22:47.493Z,13.40
2023-05-01T04:23:50.210Z,10.40
2023-05-01T04:24:54.552Z,14.90
2023-05-01T04:25:57.235Z,13.50
2023-05-01T04:27:01.322Z,13.50
2023-05-01T04:28:04.383Z,13.50
2023-05-01T04:29:08.082Z,13.50
2023-05-01T04:30:11.373Z,13.60
2023-05-01T04:31:15.724Z,13.70
2023-05-01T04:32:18.413Z,13.80
2023-05-01T04:33:22.717Z,13.90
2023-05-01T04:34:29.305Z,14.00
2023-05-01T04:35:34.272Z,14.10
2023-05-01T04:36:37.247Z,14.10
2023-05-01T04:37:41.197Z,14.00
2023-05-01T04:38:45.325Z,14.00
2023-05-01T04:39:51.149Z,13.90
2023-05-01T04:40:56.400Z,13.80
2023-05-01T04:42:00.704Z,10.90
2023-05-01T04:43:03.880Z,13.70
2023-05-01T04:44:08.984Z,13.80
2023-05-01T04:45:12.350Z,11.60
2023-05-01T04:46:16.854Z,13.80
2023-05-01T04:47:20.438Z,13.90
2023-05-01T04:48:24.166Z,14.00
2023-05-01T04:49:26.902Z,14.00
2023-05-01T04:50:30.504Z,14.10
2023-05-01T04:51:34.603Z,14.30
2023-05-01T04:52:39.189Z,14.30
2023-05-01T04:53:41.996Z,14.30
2023-05-01T04:54:55.475Z,14.30
2023-05-01T05:05:43.717Z,15.30
2023-05-01T05:06:48.342Z,15.20
2023-05-01T05:15:56.495Z,15.50
2023-05-01T05:17:00.169Z,15.60
2023-05-01T05:18:04.302Z,16.90
2023-05-01T05:20:15.787Z,19.80
2023-05-01T05:21:18.673Z,15.90
2023-05-01T05:22:28.653Z,15.80
2023-05-01T05:23:51.980Z,15.70
2023-05-01T05:24:55.228Z,15.80
2023-05-01T05:26:01.732Z,15.80
2023-05-01T05:27:04.659Z,15.80
2023-05-01T05:28:08.538Z,16.00
2023-05-01T05:29:11.281Z,16.10
2023-05-01T05:30:14.892Z,16.20
2023-05-01T05:31:17.705Z,16.30
2023-05-01T05:32:21.608Z,16.40
2023-05-01T05:33:25.148Z,16.40
2023-05-01T05:34:28.809Z,18.20
2023-05-01T05:35:31.701Z,17.00
2023-05-01T05:36:35.610Z,16.70
2023-05-01T05:37:39.847Z,16.70
2023-05-01T05:38:43.904Z,16.80
2023-05-01T05:39:50.010Z,16.90
2023-05-01T05:40:54.555Z,16.90
2023-05-01T05:41:59.072Z,16.90
2023-05-01T05:43:03.562Z,16.90
2023-05-01T05:44:06.528Z,16.90
2023-05-01T05:45:11.276Z,16.90
2023-05-01T05:46:13.818Z,16.80
2023-05-01T05:47:18.595Z,16.70
2023-05-01T05:48:21.175Z,16.70
2023-05-01T05:49:25.088Z,16.70
2023-05-01T05:50:27.970Z,16.70
2023-05-01T05:51:31.729Z,17.80
2023-05-01T05:52:35.564Z,15.90
2023-05-01T05:53:41.649Z,16.80
2023-05-01T05:54:44.452Z,16.80
2023-05-01T05:55:48.735Z,16.80
2023-05-01T05:56:51.715Z,16.70
2023-05-01T05:57:55.550Z,16.80
2023-05-01T05:58:58.764Z,15.80
2023-05-01T06:00:02.583Z,15.90
2023-05-01T06:01:16.309Z,16.80
2023-05-01T06:02:19.130Z,16.70
2023-05-01T06:03:23.160Z,16.70
2023-05-01T06:04:28.264Z,16.70
2023-05-01T06:05:32.592Z,16.70
2023-05-01T06:06:36.189Z,16.70
2023-05-01T06:07:39.947Z,16.70
2023-05-01T06:08:46.562Z,16.70
2023-05-01T06:09:48.958Z,19.10
2023-05-01T06:10:53.043Z,16.70
2023-05-01T06:11:55.889Z,16.70
2023-05-01T06:13:01.342Z,16.80
2023-05-01T06:14:17.037Z,16.90
2023-05-01T06:15:21.516Z,17.00
2023-05-01T06:16:29.548Z,16.90
2023-05-01T06:17:34.665Z,14.90
2023-05-01T06:18:38.222Z,16.90
2023-05-01T06:19:41.580Z,17.00
2023-05-01T06:20:48.035Z,17.00
2023-05-01T06:21:51.010Z,17.00
2023-05-01T06:22:54.693Z,16.90
2023-05-01T06:24:02.913Z,16.70
2023-05-01T06:25:15.870Z,16.50
2023-05-01T06:26:18.648Z,16.50
2023-05-01T06:27:22.427Z,16.40
2023-05-01T06:28:24.932Z,13.40
2023-05-01T06:29:28.297Z,16.30
2023-05-01T06:30:30.976Z,16.10
2023-05-01T06:31:34.774Z,16.10
2023-05-01T06:32:37.538Z,16.10
2023-05-01T06:33:41.066Z,16.10
2023-05-01T06:34:56.140Z,13.30
2023-05-01T06:35:59.951Z,16.30
2023-05-01T06:37:02.627Z,16.30
2023-05-01T06:38:06.957Z,16.40
2023-05-01T06:39:11.988Z,16.40
2023-05-01T06:40:15.767Z,16.50
2023-05-01T06:41:18.896Z,16.50
2023-05-01T06:42:22.452Z,16.50
2023-05-01T06:43:28.134Z,16.50
2023-05-01T06:44:32.949Z,16.40
2023-05-01T06:45:39.806Z,16.40
2023-05-01T06:46:42.476Z,16.40
2023-05-01T06:47:46.449Z,16.60
2023-05-01T06:48:49.390Z,16.60
2023-05-01T06:49:52.930Z,17.30
2023-05-01T06:50:56.560Z,16.50
2023-05-01T06:52:00.142Z,16.60
2023-05-01T06:53:03.163Z,16.50
2023-05-01T06:54:07.250Z,16.50
2023-05-01T06:55:12.678Z,16.60
2023-05-01T06:56:16.221Z,16.50
2023-05-01T06:57:19.568Z,16.50
2023-05-01T06:58:24.340Z,16.50
2023-05-01T06:59:27.627Z,16.50
2023-05-01T07:00:31.403Z,16.60
2023-05-01T07:01:35.434Z,16.80
2023-05-01T07:02:40.907Z,16.70
2023-05-01T07:03:44.243Z,16.80
2023-05-01T07:04:47.969Z,16.80
2023-05-01T07:05:50.754Z,19.00
2023-05-01T07:06:54.641Z,16.70
2023-05-01T07:08:01.620Z,16.80
2023-05-01T07:09:06.589Z,16.80
2023-05-01T07:10:12.038Z,16.80
2023-05-01T07:11:15.679Z,16.80
2023-05-01T07:12:18.144Z,16.80
2023-05-01T07:13:21.792Z,16.80
2023-05-01T07:14:24.656Z,17.00
2023-05-01T07:15:28.317Z,17.00
2023-05-01T07:16:30.830Z,17.00
2023-05-01T07:17:34.424Z,16.20
2023-05-01T07:18:38.268Z,17.00
2023-05-01T07:19:42.352Z,17.00
2023-05-01T07:20:45.152Z,17.10
2023-05-01T07:21:48.727Z,17.20
2023-05-01T07:22:51.666Z,17.00
2023-05-01T07:23:55.391Z,15.70
2023-05-01T07:24:59.087Z,17.00
2023-05-01T07:26:04.151Z,17.10
2023-05-01T07:27:06.474Z,18.90
2023-05-01T07:28:09.883Z,17.20
2023-05-01T07:29:13.395Z,17.30
2023-05-01T07:30:17.030Z,18.80
2023-05-01T07:31:19.995Z,18.50
2023-05-01T07:32:23.444Z,17.50
2023-05-01T07:33:27.199Z,17.60
2023-05-01T07:34:29.501Z,17.50
2023-05-01T07:35:35.537Z,17.60
2023-05-01T07:36:38.829Z,15.60
2023-05-01T07:37:42.659Z,17.40
2023-05-01T07:38:45.468Z,14.80
2023-05-01T07:39:49.102Z,17.40
2023-05-01T07:40:53.710Z,17.50
2023-05-01T07:42:00.769Z,17.60
2023-05-01T07:43:03.893Z,17.70
2023-05-01T07:44:13.298Z,17.40
2023-05-01T07:45:16.334Z,17.70
2023-05-01T07:46:20.012Z,17.20
2023-05-01T07:47:23.095Z,17.20
2023-05-01T07:48:26.857Z,17.20
2023-05-01T07:49:29.238Z,17.30
2023-05-01T07:50:32.822Z,17.30
2023-05-01T07:51:36.200Z,17.40
2023-05-01T07:52:40.343Z,17.40
2023-05-01T07:53:42.706Z,17.40
2023-05-01T07:54:51.262Z,17.50
2023-05-01T07:55:53.812Z,17.40
2023-05-01T07:56:58.389Z,17.50
2023-05-01T07:58:05.469Z,18.10
2023-05-01T07:59:08.999Z,17.60
2023-05-01T08:00:12.991Z,17.60
2023-05-01T08:01:19.456Z,17.60
2023-05-01T08:02:23.222Z,17.60
2023-05-01T08:03:29.108Z,17.60
2023-05-01T08:04:31.874Z,17.50
2023-05-01T08:05:35.634Z,17.50
2023-05-01T08:06:38.390Z,17.50
2023-05-01T08:07:42.209Z,17.60
2023-05-01T08:08:44.628Z,18.00
2023-05-01T08:09:48.020Z,17.60
2023-05-01T08:10:51.606Z,17.80
2023-05-01T08:11:55.078Z,17.80
2023-05-01T08:12:57.871Z,17.80
2023-05-01T08:14:03.931Z,17.90
2023-05-01T08:15:08.691Z,16.50
2023-05-01T08:16:11.835Z,19.00
2023-05-01T08:17:15.467Z,17.10
2023-05-01T08:18:21.379Z,17.90
2023-05-01T08:19:25.286Z,17.90
2023-05-01T08:20:28.947Z,16.70
2023-05-01T08:21:31.627Z,17.70
2023-05-01T08:22:35.330Z,17.80
2023-05-01T08:23:39.303Z,17.70
2023-05-01T08:24:42.867Z,17.70
2023-05-01T08:25:47.383Z,17.80
2023-05-01T08:26:51.657Z,17.90
2023-05-01T08:27:54.285Z,18.00
2023-05-01T08:28:57.880Z,18.10
2023-05-01T08:30:03.373Z,18.10
2023-05-01T08:31:05.905Z,18.00
2023-05-01T08:32:09.566Z,17.80
2023-05-01T08:33:12.165Z,17.70
2023-05-01T08:34:17.354Z,17.60
2023-05-01T08:35:22.153Z,17.60
2023-05-01T08:36:24.700Z,17.60
2023-05-01T08:37:28.498Z,18.30
2023-05-01T08:38:31.242Z,17.70
2023-05-01T08:39:34.884Z,17.80
2023-05-01T08:40:39.271Z,18.80
2023-05-01T08:41:47.065Z,17.80
2023-05-01T08:42:50.191Z,17.80
2023-05-01T08:43:54.340Z,17.70
2023-05-01T08:45:02.502Z,17.70
2023-05-01T08:46:11.509Z,17.50
2023-05-01T08:47:18.272Z,17.60
2023-05-01T08:48:23.394Z,17.70
2023-05-01T08:49:29.325Z,17.90
2023-05-01T08:50:35.694Z,17.20
2023-05-01T08:51:39.962Z,18.20
2023-05-01T08:52:47.467Z,18.40
2023-05-01T08:53:52.410Z,18.50
2023-05-01T08:54:58.664Z,18.50
2023-05-01T08:56:03.117Z,18.60
2023-05-01T08:57:10.547Z,18.60
2023-05-01T08:58:18.599Z,18.60
2023-05-01T08:59:26.404Z,18.70
2023-05-01T09:00:34.386Z,20.30
2023-05-01T09:01:40.138Z,18.90
2023-05-01T09:02:44.393Z,18.80
2023-05-01T09:03:52.091Z,18.90
2023-05-01T09:04:56.738Z,19.00
2023-05-01T09:06:03.097Z,19.20
2023-05-01T09:07:09.431Z,19.40
2023-05-01T09:08:13.618Z,18.50
2023-05-01T09:09:19.240Z,19.70
2023-05-01T09:10:21.854Z,19.70
2023-05-01T09:11:26.528Z,19.70
2023-05-01T09:12:36.410Z,19.70
2023-05-01T09:13:40.581Z,19.60
2023-05-01T09:14:43.852Z,18.70
2023-05-01T09:15:51.981Z,19.50
2023-05-01T09:16:56.228Z,19.50
2023-05-01T09:18:04.307Z,19.30
2023-05-01T09:19:07.493Z,19.30
2023-05-01T09:20:12.863Z,19.40
2023-05-01T09:21:15.724Z,20.00
2023-05-01T09:22:20.686Z,19.30
2023-05-01T09:23:24.646Z,19.20
2023-05-01T09:24:27.910Z,19.30
2023-05-01T09:25:31.633Z,19.40
2023-05-01T09:26:42.157Z,19.40
2023-05-01T09:27:57.045Z,19.50
2023-05-01T09:29:00.920Z,19.50
2023-05-01T09:30:06.165Z,19.20
2023-05-01T09:31:24.007Z,19.10
2023-05-01T09:32:33.892Z,18.20
2023-05-01T09:34:02.057Z,18.70
2023-05-01T09:35:14.674Z,18.40
2023-05-01T09:36:18.090Z,18.30
2023-05-01T09:37:29.911Z,18.20
2023-05-01T09:38:33.748Z,18.30
2023-05-01T09:39:36.582Z,18.30
2023-05-01T09:40:40.518Z,18.30
2023-05-01T09:41:54.372Z,19.10
2023-05-01T09:42:57.826Z,18.50
2023-05-01T09:44:01.922Z,18.60
2023-05-01T09:45:07.209Z,18.60
2023-05-01T09:46:13.243Z,18.60
2023-05-01T09:47:23.082Z,18.60
2023-05-01T09:48:26.976Z,18.60
2023-05-01T09:49:48.396Z,18.50
2023-05-01T09:50:52.369Z,18.30
2023-05-01T09:52:14.922Z,18.00
2023-05-01T09:53:17.734Z,18.00
2023-05-01T09:54:22.222Z,17.90
2023-05-01T09:55:25.946Z,17.90
2023-05-01T09:56:31.802Z,18.00
2023-05-01T09:57:39.665Z,18.00
2023-05-01T09:58:43.372Z,18.00
2023-05-01T10:00:08.510Z,18.00
2023-05-01T10:01:12.525Z,18.10
2023-05-01T10:02:31.713Z,18.30
2023-05-01T10:03:35.637Z,18.50
2023-05-01T10:04:39.726Z,18.70
2023-05-01T10:05:45.739Z,18.60
2023-05-01T10:06:50.921Z,18.60
2023-05-01T10:07:58.371Z,18.60
2023-05-01T10:09:02.243Z,18.60
2023-05-01T10:10:18.576Z,18.70
2023-05-01T10:11:23.317Z,18.80
2023-05-01T10:12:28.325Z,18.70
2023-05-01T10:13:32.253Z,18.70
2023-05-01T10:14:52.461Z,18.80
2023-05-01T10:15:56.235Z,18.80
2023-05-01T10:16:59.631Z,18.80
2023-05-01T10:18:05.313Z,18.60
2023-05-01T10:19:08.160Z,18.50
2023-05-01T10:20:13.678Z,20.10
2023-05-01T10:21:18.229Z,18.60
2023-05-01T10:22:20.844Z,18.60
2023-05-01T10:23:25.958Z,18.70
2023-05-01T10:24:29.681Z,18.60
2023-05-01T10:25:33.689Z,18.50
2023-05-01T10:26:38.220Z,18.40
2023-05-01T10:27:42.458Z,18.40
2023-05-01T10:28:46.604Z,18.40
2023-05-01T10:29:51.517Z,18.40
2023-05-01T10:30:55.661Z,18.50
2023-05-01T10:32:00.759Z,18.60
2023-05-01T10:33:07.828Z,18.60
2023-05-01T10:34:17.072Z,18.70
2023-05-01T10:35:26.669Z,18.70
2023-05-01T10:36:36.388Z,18.70
2023-05-01T10:37:47.693Z,18.70
2023-05-01T10:38:50.376Z,18.70
2023-05-01T10:39:54.204Z,18.70
2023-05-01T10:40:56.633Z,18.60
2023-05-01T10:42:05.260Z,18.60
2023-05-01T10:43:16.976Z,18.60
2023-05-01T10:44:25.650Z,18.70
2023-05-01T10:45:29.422Z,18.80
2023-05-01T10:46:33.473Z,18.90
2023-05-01T10:47:45.858Z,18.90
2023-05-01T10:48:58.308Z,18.90
2023-05-01T10:50:05.053Z,18.90
2023-05-01T10:51:15.603Z,19.00
2023-05-01T10:52:21.505Z,19.10
2023-05-01T10:53:24.672Z,18.70
2023-05-01T10:54:29.785Z,19.20
2023-05-01T10:55:34.265Z,19.10
2023-05-01T10:56:46.594Z,19.10
2023-05-01T10:57:49.526Z,19.20
2023-05-01T10:58:59.740Z,20.50
2023-05-01T11:00:13.732Z,19.40
2023-05-01T11:01:34.317Z,19.40
2023-05-01T11:02:38.040Z,19.40
2023-05-01T11:03:40.544Z,19.50
2023-05-01T11:04:52.247Z,19.50
2023-05-01T11:06:08.158Z,19.40
2023-05-01T11:07:19.706Z,19.30
2023-05-01T11:08:31.921Z,19.30
2023-05-01T11:09:41.451Z,19.40
2023-05-01T11:10:44.552Z,19.30
2023-05-01T11:11:52.016Z,19.70
2023-05-01T11:12:54.757Z,19.20
2023-05-01T11:14:02.777Z,17.60
2023-05-01T11:15:08.501Z,19.00
2023-05-01T11:16:43.452Z,18.80
2023-05-01T11:17:46.633Z,18.80
2023-05-01T11:18:51.058Z,18.80
2023-05-01T11:19:56.714Z,19.60
2023-05-01T11:21:00.110Z,18.40
2023-05-01T11:22:13.126Z,19.00
2023-05-01T11:23:20.536Z,19.10
2023-05-01T11:24:33.496Z,19.10
2023-05-01T11:25:36.170Z,19.10
2023-05-01T11:26:42.042Z,19.60
2023-05-01T11:27:48.605Z,18.90
2023-05-01T11:28:56.781Z,18.10
2023-05-01T11:30:01.128Z,18.70
2023-05-01T11:31:04.122Z,18.70
2023-05-01T11:32:10.818Z,18.90
2023-05-01T11:33:23.056Z,18.80
2023-05-01T11:34:28.101Z,18.80
2023-05-01T11:35:33.107Z,18.70
2023-05-01T11:36:50.163Z,18.60
2023-05-01T11:37:55.865Z,18.60
2023-05-01T11:39:01.044Z,18.50
2023-05-01T11:40:04.740Z,18.60
2023-05-01T11:41:08.665Z,18.60
2023-05-01T11:42:11.320Z,18.60
2023-05-01T11:43:15.033Z,18.70
2023-05-01T11:44:19.548Z,18.80
2023-05-01T11:45:23.585Z,18.90
2023-05-01T11:46:28.927Z,19.00
2023-05-01T11:47:32.827Z,19.10
2023-05-01T11:48:36.737Z,19.10
2023-05-01T11:49:40.996Z,19.00
2023-05-01T11:50:45.996Z,19.00
2023-05-01T11:51:58.426Z,20.40
2023-05-01T11:53:00.890Z,19.10
2023-05-01T11:54:09.041Z,19.10
2023-05-01T11:55:12.618Z,19.20
2023-05-01T11:56:27.068Z,19.00
2023-05-01T11:57:31.182Z,18.90
2023-05-01T11:58:36.584Z,18.80
2023-05-01T11:59:39.729Z,18.70
2023-05-01T12:00:45.138Z,18.30
2023-05-01T12:01:48.345Z,18.90
2023-05-01T12:03:02.941Z,18.90
2023-05-01T12:04:09.090Z,19.00
2023-05-01T12:05:16.487Z,18.90
2023-05-01T12:06:21.711Z,18.90
2023-05-01T12:07:24.561Z,19.00
2023-05-01T12:08:28.698Z,19.20
2023-05-01T12:09:33.048Z,19.40
2023-05-01T12:10:37.201Z,20.80
2023-05-01T12:11:41.710Z,19.80
2023-05-01T12:12:47.439Z,19.80
2023-05-01T12:13:51.579Z,19.80
2023-05-01T12:14:54.317Z,19.90
2023-05-01T12:16:01.408Z,18.80
2023-05-01T12:17:06.221Z,20.10
2023-05-01T12:18:10.598Z,20.10
2023-05-01T12:19:14.544Z,20.00
2023-05-01T12:20:19.322Z,19.90
2023-05-01T12:21:25.775Z,19.70
2023-05-01T12:22:29.878Z,19.70
2023-05-01T12:23:35.902Z,19.70
2023-05-01T12:24:39.316Z,19.70
2023-05-01T12:25:43.738Z,19.80
2023-05-01T12:26:47.057Z,19.70
2023-05-01T12:27:51.216Z,19.60
2023-05-01T12:28:55.322Z,19.50
2023-05-01T12:29:59.478Z,19.60
2023-05-01T12:31:05.376Z,19.70
2023-05-01T12:32:10.292Z,20.30
2023-05-01T12:33:15.866Z,19.60
2023-05-01T12:34:30.535Z,19.60
2023-05-01T12:35:33.000Z,19.60
2023-05-01T12:36:39.147Z,19.80
2023-05-01T12:37:42.044Z,20.00
2023-05-01T12:38:57.520Z,20.20
2023-05-01T12:40:00.581Z,20.20
2023-05-01T12:41:07.455Z,20.20
2023-05-01T12:42:15.187Z,20.10
2023-05-01T12:43:18.438Z,19.90
2023-05-01T12:44:24.920Z,19.80
2023-05-01T12:45:28.849Z,19.80
2023-05-01T12:46:32.580Z,18.50
2023-05-01T12:47:38.773Z,19.70
2023-05-01T12:48:42.980Z,19.60
2023-05-01T12:49:46.936Z,19.60
2023-05-01T12:50:54.890Z,19.70
2023-05-01T12:52:02.244Z,19.80
2023-05-01T12:53:05.337Z,19.90
2023-05-01T12:54:10.249Z,20.00
2023-05-01T12:55:14.292Z,20.20
2023-05-01T12:56:25.316Z,21.90
2023-05-01T12:57:28.320Z,20.50
2023-05-01T12:58:39.163Z,20.60
2023-05-01T12:59:44.793Z,20.50
2023-05-01T13:00:51.619Z,20.30
2023-05-01T13:02:01.617Z,20.20
2023-05-01T13:03:07.264Z,21.50
2023-05-01T13:04:10.150Z,19.90
2023-05-01T13:05:14.572Z,19.70
2023-05-01T13:06:18.411Z,19.60
2023-05-01T13:07:23.477Z,19.50
2023-05-01T13:08:27.908Z,21.20
2023-05-01T13:09:32.580Z,19.60
2023-05-01T13:10:35.796Z,19.80
2023-05-01T13:11:40.718Z,19.90
2023-05-01T13:12:47.519Z,19.90
2023-05-01T13:13:51.550Z,19.90
2023-05-01T13:14:55.254Z,18.50
2023-05-01T13:16:07.294Z,20.00
2023-05-01T13:17:13.540Z,20.00
2023-05-01T13:18:16.116Z,20.10
2023-05-01T13:19:28.942Z,20.20
2023-05-01T13:20:33.271Z,20.30
2023-05-01T13:21:36.940Z,20.30
2023-05-01T13:22:42.566Z,20.30
2023-05-01T13:23:54.091Z,22.00
2023-05-01T13:24:58.228Z,20.30
2023-05-01T13:26:01.505Z,18.80
2023-05-01T13:27:06.456Z,20.30
2023-05-01T13:28:12.022Z,20.30
2023-05-01T13:29:17.617Z,20.20
2023-05-01T13:30:23.466Z,20.10
2023-05-01T13:31:27.486Z,18.80
2023-05-01T13:32:31.529Z,19.70
2023-05-01T13:33:34.612Z,19.50
2023-05-01T13:34:38.665Z,19.50
2023-05-01T13:35:41.181Z,19.40
2023-05-01T13:36:46.317Z,19.50
2023-05-01T13:37:50.362Z,19.60
2023-05-01T13:38:56.968Z,19.80
2023-05-01T13:40:01.139Z,19.80
2023-05-01T13:41:04.538Z,19.90
2023-05-01T13:42:08.886Z,20.00
2023-05-01T13:43:17.087Z,20.00
2023-05-01T13:44:23.486Z,19.90
2023-05-01T13:45:27.305Z,19.90
2023-05-01T13:46:32.046Z,19.70
2023-05-01T13:47:37.812Z,19.60
2023-05-01T13:48:43.058Z,19.60
2023-05-01T13:49:47.169Z,19.70
2023-05-01T13:50:51.550Z,21.10
2023-05-01T13:51:55.754Z,19.80
2023-05-01T13:53:01.437Z,19.80
2023-05-01T13:54:05.159Z,19.80
2023-05-01T13:55:09.955Z,19.90
2023-05-01T13:56:13.997Z,20.00
2023-05-01T13:57:18.387Z,20.00
2023-05-01T13:58:20.853Z,20.10
2023-05-01T13:59:24.635Z,20.30
2023-05-01T14:00:27.634Z,20.30
2023-05-01T14:01:31.367Z,21.10
2023-05-01T14:02:35.786Z,18.20
2023-05-01T14:03:42.583Z,20.00
2023-05-01T14:04:49.739Z,20.00
2023-05-01T14:05:52.565Z,20.10
2023-05-01T14:06:56.883Z,20.10
2023-05-01T14:08:02.300Z,22.00
2023-05-01T14:09:07.349Z,20.00
2023-05-01T14:10:11.267Z,19.90
2023-05-01T14:11:17.051Z,19.90
2023-05-01T14:12:20.333Z,20.00
2023-05-01T14:13:26.168Z,20.00
2023-05-01T14:14:28.896Z,20.00
2023-05-01T14:15:35.376Z,20.10
2023-05-01T14:16:43.071Z,20.10
2023-05-01T14:17:48.477Z,19.90
2023-05-01T14:18:57.054Z,20.00
2023-05-01T14:20:00.864Z,20.00
2023-05-01T14:21:05.571Z,20.10
2023-05-01T14:22:10.102Z,20.20
2023-05-01T14:23:16.776Z,20.20
2023-05-01T14:24:20.189Z,20.20
2023-05-01T14:25:27.441Z,20.30
2023-05-01T14:26:30.929Z,20.20
2023-05-01T14:27:34.972Z,20.20
2023-05-01T14:28:44.618Z,20.20
2023-05-01T14:29:51.170Z,20.20
2023-05-01T14:30:56.049Z,19.20
2023-05-01T14:32:04.343Z,18.50
2023-05-01T14:33:10.565Z,20.10
2023-05-01T14:34:17.734Z,20.20
2023-05-01T14:35:23.737Z,20.30
2023-05-01T14:36:28.403Z,20.30
2023-05-01T14:37:33.398Z,20.30
2023-05-01T14:38:40.409Z,20.20
2023-05-01T14:39:42.969Z,20.20
2023-05-01T14:40:47.213Z,20.10
2023-05-01T14:41:53.257Z,20.20
2023-05-01T14:42:57.986Z,18.40
2023-05-01T14:44:06.242Z,20.10
2023-05-01T14:45:11.795Z,20.00
2023-05-01T14:46:17.250Z,20.10
2023-05-01T14:47:21.803Z,20.10
2023-05-01T14:48:27.547Z,20.20
2023-05-01T14:49:30.324Z,20.10
2023-05-01T14:50:33.651Z,20.20
2023-05-01T14:51:37.199Z,20.20
2023-05-01T14:52:41.030Z,20.10
2023-05-01T14:53:44.921Z,20.10
2023-05-01T14:54:49.530Z,20.10
2023-05-01T14:55:52.581Z,20.90
2023-05-01T14:56:56.682Z,19.90
2023-05-01T14:57:59.916Z,19.90
2023-05-01T14:59:04.079Z,19.90
2023-05-01T15:00:09.235Z,19.80
2023-05-01T15:01:14.967Z,20.80
2023-05-01T15:02:18.429Z,19.80
2023-05-01T15:03:24.974Z,19.90
2023-05-01T15:04:27.792Z,19.90
2023-05-01T15:05:32.510Z,20.00
2023-05-01T15:06:35.175Z,20.00
2023-05-01T15:07:38.875Z,20.10
2023-05-01T15:08:41.774Z,20.00
2023-05-01T15:09:47.082Z,20.00
2023-05-01T15:10:52.575Z,19.90
2023-05-01T15:11:56.054Z,19.80
2023-05-01T15:12:58.512Z,18.90
2023-05-01T15:14:02.643Z,19.70
2023-05-01T15:15:08.389Z,19.60
2023-05-01T15:16:12.305Z,19.60
2023-05-01T15:17:16.551Z,19.60
2023-05-01T15:18:20.223Z,19.60
2023-05-01T15:19:22.773Z,19.70
2023-05-01T15:20:26.541Z,19.70
2023-05-01T15:21:29.667Z,19.60
2023-05-01T15:22:33.465Z,17.70
2023-05-01T15:23:37.170Z,19.70
2023-05-01T15:24:40.785Z,19.60
2023-05-01T15:25:44.638Z,19.40
2023-05-01T15:26:49.141Z,19.40
2023-05-01T15:27:52.968Z,19.40
2023-05-01T15:28:56.813Z,19.30
2023-05-01T15:30:01.359Z,19.30
2023-05-01T15:31:05.370Z,19.40
2023-05-01T15:32:12.750Z,19.50
2023-05-01T15:33:18.687Z,19.60
2023-05-01T15:34:22.736Z,19.60
2023-05-01T15:35:26.279Z,19.90
2023-05-01T15:36:30.044Z,19.50
2023-05-01T15:37:33.953Z,19.30
2023-05-01T15:38:37.719Z,19.40
2023-05-01T15:39:40.765Z,19.40
2023-05-01T15:40:46.751Z,19.40
2023-05-01T15:41:50.350Z,18.20
2023-05-01T15:42:55.411Z,19.40
2023-05-01T15:43:57.877Z,19.30
2023-05-01T15:45:03.340Z,19.20
2023-05-01T15:46:06.195Z,19.10
2023-05-01T15:47:09.832Z,19.10
2023-05-01T15:48:13.612Z,19.10
2023-05-01T15:49:18.540Z,19.00
2023-05-01T15:50:22.091Z,18.90
2023-05-01T15:51:26.209Z,18.90
2023-05-01T15:52:29.704Z,18.80
2023-05-01T15:53:32.537Z,18.80
2023-05-01T15:54:35.924Z,18.80
2023-05-01T15:55:38.830Z,18.80
2023-05-01T15:56:43.605Z,18.80
2023-05-01T15:57:46.929Z,18.80
2023-05-01T15:58:52.252Z,18.80
2023-05-01T15:59:56.149Z,18.90
2023-05-01T16:00:58.772Z,19.00
2023-05-01T16:02:02.260Z,19.00
2023-05-01T16:03:05.020Z,19.00
2023-05-01T16:04:10.052Z,19.00
2023-05-01T16:05:15.532Z,18.90
2023-05-01T16:06:19.990Z,19.50
2023-05-01T16:07:23.389Z,18.90
2023-05-01T16:08:27.422Z,18.90
2023-05-01T16:09:32.631Z,18.90
2023-05-01T16:10:37.344Z,19.00
2023-05-01T16:11:41.666Z,19.00
2023-05-01T16:12:46.632Z,19.00
2023-05-01T16:13:52.236Z,18.90
2023-05-01T16:14:55.595Z,18.90
2023-05-01T16:15:59.332Z,18.90
2023-05-01T16:17:03.006Z,18.90
2023-05-01T16:18:06.329Z,18.80
2023-05-01T16:19:12.974Z,18.80
2023-05-01T16:20:17.324Z,18.80
2023-05-01T16:21:20.211Z,18.70
2023-05-01T16:22:24.127Z,17.20
2023-05-01T16:23:27.718Z,18.70
2023-05-01T16:24:33.455Z,18.70
2023-05-01T16:25:36.440Z,20.70
2023-05-01T16:26:42.397Z,18.60
2023-05-01T16:27:47.800Z,18.50
2023-05-01T16:28:51.619Z,18.60
2023-05-01T16:29:54.170Z,20.40
2023-05-01T16:31:01.444Z,18.50
2023-05-01T16:32:11.423Z,20.70
2023-05-01T16:33:18.979Z,18.50
2023-05-01T16:34:26.348Z,19.50
2023-05-01T16:35:29.340Z,18.40
2023-05-01T16:36:35.677Z,18.50
2023-05-01T16:37:40.666Z,18.50
2023-05-01T16:38:43.454Z,18.50
2023-05-01T16:39:48.593Z,18.30
2023-05-01T16:40:52.620Z,18.20
2023-05-01T16:41:57.319Z,18.20
2023-05-01T16:43:02.959Z,18.10
2023-05-01T16:44:06.563Z,18.00
2023-05-01T16:45:10.060Z,18.00
2023-05-01T16:46:16.901Z,17.90
2023-05-01T16:47:20.869Z,17.90
2023-05-01T16:48:25.248Z,18.20
2023-05-01T16:49:29.047Z,17.80
2023-05-01T16:50:34.423Z,17.80
2023-05-01T16:51:39.565Z,17.80
2023-05-01T16:52:43.810Z,17.70
2023-05-01T16:53:47.368Z,17.60
2023-05-01T16:54:51.719Z,17.60
2023-05-01T16:55:54.324Z,17.60
2023-05-01T16:56:58.281Z,17.50
2023-05-01T16:58:03.728Z,15.80
2023-05-01T16:59:07.502Z,17.50
2023-05-01T17:00:12.198Z,17.50
2023-05-01T17:01:18.446Z,17.50
2023-05-01T17:02:22.151Z,17.50
2023-05-01T17:03:27.703Z,17.50
2023-05-01T17:04:30.394Z,17.50
2023-05-01T17:05:34.150Z,17.40
2023-05-01T17:06:37.197Z,18.50
2023-05-01T17:07:40.952Z,17.30
2023-05-01T17:08:44.910Z,17.30
2023-05-01T17:09:47.961Z,17.30
2023-05-01T17:10:51.643Z,17.40
2023-05-01T17:11:56.690Z,17.30
2023-05-01T17:13:06.463Z,17.20
2023-05-01T17:14:09.418Z,17.20
2023-05-01T17:15:16.360Z,17.10
2023-05-01T17:16:19.725Z,17.10
2023-05-01T17:17:25.691Z,17.10
2023-05-01T17:18:28.573Z,17.50
2023-05-01T17:19:33.423Z,17.10
2023-05-01T17:20:37.360Z,18.30
2023-05-01T17:21:40.139Z,17.00
2023-05-01T17:22:44.614Z,17.40
2023-05-01T17:23:48.516Z,17.00
2023-05-01T17:24:51.531Z,17.00
2023-05-01T17:25:55.391Z,17.00
2023-05-01T17:27:00.695Z,16.90
2023-05-01T17:28:06.766Z,18.60
2023-05-01T17:29:09.545Z,16.90
2023-05-01T17:30:15.000Z,16.80
2023-05-01T17:31:19.928Z,16.80
2023-05-01T17:32:33.492Z,16.70
2023-05-01T17:33:40.905Z,14.90
2023-05-01T17:34:44.921Z,14.20
2023-05-01T17:35:49.474Z,16.60
2023-05-01T17:36:51.988Z,16.60
2023-05-01T17:37:57.728Z,16.50
2023-05-01T17:39:01.588Z,16.50
2023-05-01T17:40:06.649Z,16.50
2023-05-01T17:41:10.877Z,16.50
2023-05-01T17:42:14.155Z,18.60
2023-05-01T17:43:19.050Z,16.40
2023-05-01T17:44:21.538Z,16.30
2023-05-01T17:45:25.240Z,16.30
2023-05-01T17:46:28.803Z,16.30
2023-05-01T17:47:32.588Z,16.30
2023-05-01T17:48:36.395Z,16.30
2023-05-01T17:49:40.515Z,16.30
2023-05-01T17:50:44.461Z,16.20
2023-05-01T17:51:48.003Z,16.20